Offutt AFB, NE (68113)

11:49 AM CST on February 21, 2017 (GMT -0600)
Cornerstone Christian School - La Platte | | Change Station
Active Advisory: Special Statement

Elev 993 ft 41.14 °N, 95.89 °W | Updated 8 minutes ago

Clear
Clear
60.8 °F
Feels Like 60.8 °F
N
10.4
Wind Variable Wind from SSW

Today
High -- | Low -- °F
--% Chance of Precip.
Yesterday
High -- | Low -- °F
Precip. -- in
Pressure 29.96 in
Visibility 10.0 miles
Clouds Clear
Dew Point 45 °F
Humidity 56%
Rainfall 0.00 in
Snow Depth Not available.
7:09 AM 6:05 PM
Waning Crescent, 24% visible
METAR KOFF 211658Z 14004KT 10SM CLR 13/07 A2999 RMK AO2A SLP146 $
Pressure 29.96 in
Visibility 10.0 miles
Clouds Clear
Dew Point 45 °F
Humidity 56%
Rainfall 0.00 in
Snow Depth Not available.
7:09 AM 6:05 PM
Waning Crescent, 24% visible
METAR KOFF 211658Z 14004KT 10SM CLR 13/07 A2999 RMK AO2A SLP146 $

Get Your Daily Forecast Email!

Thanks for signing up!

Be on the lookout for a verification email in your inbox.

You'll start receiving the daily forecast at 8 AM.

×

10-Day Weather Forecast

Almanac

Astronomy

Feb. 21, 2017 Rise Set
Actual Time
Civil Twilight
Nautical Twilight
Astronomical Twilight
Moon
Length of Visible Light
Length of Day
Tomorrow will be .
, % of the Moon is Illuminated

Today's Extremes

State Highs State Lows

Community

WunderPhotos

Upload Photos

1,962,540 photos uploaded!

WunderBlog® & News

Nearby

Air Quality

  Air Quality AQ Index Pollutant
Not available.

Snow Depth

Station Depth Elevation

Earthquake Activity

City Distance Mag. Time & Date
Minimum magnitude displayed is 2.5.

Coastal Water Temperatures

Place Temperature

Stations

Nearby Weather Stations

Station Location Temp. Windchill Dew Point Humidity Wind Precip. Elev Updated Type
                   

Watches & Warnings

Special Statement
Issued: 11:44 AM CST Feb. 21, 2017 – National Weather Service

... Very high fire danger today...

Warm near record temperatures will combine with low relative
humidity to create very high grassland fire danger this afternoon.
Lowest relative humidity values will drop to 20 to 30 percent
through the day and southwest winds will range from 10 to 20 mph.

Outdoor burning is discouraged. Use caution if using motorized
vehicles in grassy areas, and handle the disposal of smoking
materials with care.


Dewald